sensor_id;sensor_type;location;lat;lon;timestamp;P1;durP1;ratioP1;P2;durP2;ratioP2
62509;SDS011;48558;48.242;11.654;2023-07-02T00:00:06;2.70;;;2.50;;
62509;SDS011;48558;48.242;11.654;2023-07-02T00:04:21;2.50;;;2.30;;
62509;SDS011;48558;48.242;11.654;2023-07-02T00:08:34;3.28;;;2.38;;
62509;SDS011;48558;48.242;11.654;2023-07-02T00:12:46;2.63;;;2.40;;
62509;SDS011;48558;48.242;11.654;2023-07-02T00:16:59;2.50;;;2.30;;
62509;SDS011;48558;48.242;11.654;2023-07-02T00:21:13;2.60;;;2.40;;
62509;SDS011;48558;48.242;11.654;2023-07-02T00:25:25;2.72;;;2.22;;
62509;SDS011;48558;48.242;11.654;2023-07-02T00:29:39;2.83;;;2.10;;
62509;SDS011;48558;48.242;11.654;2023-07-02T00:33:51;2.40;;;2.20;;
62509;SDS011;48558;48.242;11.654;2023-07-02T00:38:04;2.58;;;2.30;;
62509;SDS011;48558;48.242;11.654;2023-07-02T00:42:16;2.13;;;1.58;;
62509;SDS011;48558;48.242;11.654;2023-07-02T00:46:29;1.90;;;1.80;;
62509;SDS011;48558;48.242;11.654;2023-07-02T00:50:43;1.70;;;1.63;;
62509;SDS011;48558;48.242;11.654;2023-07-02T00:54:56;2.58;;;2.08;;
62509;SDS011;48558;48.242;11.654;2023-07-02T00:59:08;2.45;;;1.98;;
62509;SDS011;48558;48.242;11.654;2023-07-02T01:03:21;1.85;;;1.75;;
62509;SDS011;48558;48.242;11.654;2023-07-02T01:07:43;1.83;;;1.73;;
62509;SDS011;48558;48.242;11.654;2023-07-02T01:11:57;1.90;;;1.80;;
62509;SDS011;48558;48.242;11.654;2023-07-02T01:16:20;1.85;;;1.67;;
62509;SDS011;48558;48.242;11.654;2023-07-02T01:20:44;1.65;;;1.55;;
62509;SDS011;48558;48.242;11.654;2023-07-02T01:25:04;2.10;;;1.90;;
62509;SDS011;48558;48.242;11.654;2023-07-02T01:29:18;1.80;;;1.70;;
62509;SDS011;48558;48.242;11.654;2023-07-02T01:33:32;1.67;;;1.58;;
62509;SDS011;48558;48.242;11.654;2023-07-02T01:37:45;1.33;;;1.33;;
62509;SDS011;48558;48.242;11.654;2023-07-02T01:42:14;3.20;;;1.70;;
62509;SDS011;48558;48.242;11.654;2023-07-02T01:46:35;1.40;;;1.30;;
62509;SDS011;48558;48.242;11.654;2023-07-02T01:50:47;1.48;;;1.38;;
62509;SDS011;48558;48.242;11.654;2023-07-02T01:55:01;3.50;;;1.23;;
62509;SDS011;48558;48.242;11.654;2023-07-02T01:59:14;1.40;;;1.30;;
62509;SDS011;48558;48.242;11.654;2023-07-02T02:03:37;1.70;;;1.20;;
62509;SDS011;48558;48.242;11.654;2023-07-02T02:07:50;1.35;;;1.27;;
62509;SDS011;48558;48.242;11.654;2023-07-02T02:12:02;1.08;;;1.08;;
62509;SDS011;48558;48.242;11.654;2023-07-02T02:16:25;1.77;;;1.35;;
62509;SDS011;48558;48.242;11.654;2023-07-02T02:20:38;1.67;;;1.30;;
62509;SDS011;48558;48.242;11.654;2023-07-02T02:24:51;1.60;;;1.50;;
62509;SDS011;48558;48.242;11.654;2023-07-02T02:29:04;1.65;;;1.40;;
62509;SDS011;48558;48.242;11.654;2023-07-02T02:33:16;1.48;;;1.20;;
62509;SDS011;48558;48.242;11.654;2023-07-02T02:37:34;1.60;;;1.10;;
62509;SDS011;48558;48.242;11.654;2023-07-02T02:41:59;1.30;;;1.23;;
62509;SDS011;48558;48.242;11.654;2023-07-02T02:46:21;1.10;;;1.10;;
62509;SDS011;48558;48.242;11.654;2023-07-02T02:50:36;1.20;;;1.20;;
62509;SDS011;48558;48.242;11.654;2023-07-02T02:54:57;1.23;;;1.13;;
62509;SDS011;48558;48.242;11.654;2023-07-02T02:59:09;1.77;;;1.63;;
62509;SDS011;48558;48.242;11.654;2023-07-02T03:03:22;2.33;;;1.60;;
62509;SDS011;48558;48.242;11.654;2023-07-02T03:07:36;1.42;;;1.20;;
62509;SDS011;48558;48.242;11.654;2023-07-02T03:11:48;2.05;;;1.67;;
62509;SDS011;48558;48.242;11.654;2023-07-02T03:16:01;3.15;;;1.80;;
62509;SDS011;48558;48.242;11.654;2023-07-02T03:20:14;2.42;;;1.80;;
62509;SDS011;48558;48.242;11.654;2023-07-02T03:24:27;1.55;;;1.45;;
62509;SDS011;48558;48.242;11.654;2023-07-02T03:28:39;1.80;;;1.70;;
62509;SDS011;48558;48.242;11.654;2023-07-02T03:32:52;1.77;;;1.67;;
62509;SDS011;48558;48.242;11.654;2023-07-02T03:37:04;1.70;;;1.60;;
62509;SDS011;48558;48.242;11.654;2023-07-02T03:41:20;4.25;;;2.13;;
62509;SDS011;48558;48.242;11.654;2023-07-02T03:45:32;2.38;;;2.10;;
62509;SDS011;48558;48.242;11.654;2023-07-02T03:49:45;2.00;;;1.90;;
62509;SDS011;48558;48.242;11.654;2023-07-02T03:53:58;2.25;;;1.85;;
62509;SDS011;48558;48.242;11.654;2023-07-02T03:58:11;2.15;;;1.95;;
62509;SDS011;48558;48.242;11.654;2023-07-02T04:02:23;1.88;;;1.77;;
62509;SDS011;48558;48.242;11.654;2023-07-02T04:06:36;2.40;;;2.00;;
62509;SDS011;48558;48.242;11.654;2023-07-02T04:10:49;1.98;;;1.88;;
62509;SDS011;48558;48.242;11.654;2023-07-02T04:15:11;2.45;;;2.25;;
62509;SDS011;48558;48.242;11.654;2023-07-02T04:19:24;2.50;;;1.80;;
62509;SDS011;48558;48.242;11.654;2023-07-02T04:23:37;2.25;;;2.05;;
62509;SDS011;48558;48.242;11.654;2023-07-02T04:27:50;2.38;;;1.90;;
62509;SDS011;48558;48.242;11.654;2023-07-02T04:32:13;2.08;;;1.90;;
62509;SDS011;48558;48.242;11.654;2023-07-02T04:36:25;2.53;;;2.17;;
62509;SDS011;48558;48.242;11.654;2023-07-02T04:40:40;2.33;;;2.13;;
62509;SDS011;48558;48.242;11.654;2023-07-02T04:44:57;4.07;;;2.13;;
62509;SDS011;48558;48.242;11.654;2023-07-02T04:49:14;2.92;;;2.00;;
62509;SDS011;48558;48.242;11.654;2023-07-02T04:53:27;2.55;;;2.20;;
62509;SDS011;48558;48.242;11.654;2023-07-02T04:57:40;3.00;;;2.00;;
62509;SDS011;48558;48.242;11.654;2023-07-02T05:01:54;1.90;;;1.75;;
62509;SDS011;48558;48.242;11.654;2023-07-02T05:06:14;7.15;;;1.85;;
62509;SDS011;48558;48.242;11.654;2023-07-02T05:10:27;2.42;;;2.05;;
62509;SDS011;48558;48.242;11.654;2023-07-02T05:14:39;6.68;;;2.10;;
62509;SDS011;48558;48.242;11.654;2023-07-02T05:18:52;6.18;;;2.33;;
62509;SDS011;48558;48.242;11.654;2023-07-02T05:23:14;4.72;;;2.22;;
62509;SDS011;48558;48.242;11.654;2023-07-02T05:27:27;1.75;;;1.65;;
62509;SDS011;48558;48.242;11.654;2023-07-02T05:31:39;2.00;;;1.90;;
62509;SDS011;48558;48.242;11.654;2023-07-02T05:35:52;3.00;;;2.13;;
62509;SDS011;48558;48.242;11.654;2023-07-02T05:40:05;2.75;;;2.40;;
62509;SDS011;48558;48.242;11.654;2023-07-02T05:44:19;3.67;;;2.45;;
62509;SDS011;48558;48.242;11.654;2023-07-02T05:48:32;2.75;;;2.40;;
62509;SDS011;48558;48.242;11.654;2023-07-02T05:52:45;2.83;;;1.92;;
62509;SDS011;48558;48.242;11.654;2023-07-02T05:56:58;3.75;;;2.20;;
62509;SDS011;48558;48.242;11.654;2023-07-02T06:01:10;3.05;;;2.00;;
62509;SDS011;48558;48.242;11.654;2023-07-02T06:05:23;3.13;;;2.30;;
62509;SDS011;48558;48.242;11.654;2023-07-02T06:09:36;5.47;;;2.00;;
62509;SDS011;48558;48.242;11.654;2023-07-02T06:13:49;2.35;;;2.13;;
62509;SDS011;48558;48.242;11.654;2023-07-02T06:18:01;4.70;;;2.47;;
62509;SDS011;48558;48.242;11.654;2023-07-02T06:22:24;2.20;;;2.00;;
62509;SDS011;48558;48.242;11.654;2023-07-02T06:26:37;2.30;;;2.10;;
62509;SDS011;48558;48.242;11.654;2023-07-02T06:30:59;2.10;;;2.00;;
62509;SDS011;48558;48.242;11.654;2023-07-02T06:35:12;3.55;;;2.53;;
62509;SDS011;48558;48.242;11.654;2023-07-02T06:39:25;2.38;;;2.15;;
62509;SDS011;48558;48.242;11.654;2023-07-02T06:43:37;2.72;;;1.92;;
62509;SDS011;48558;48.242;11.654;2023-07-02T06:47:50;5.53;;;2.08;;
62509;SDS011;48558;48.242;11.654;2023-07-02T06:52:03;3.60;;;2.03;;
62509;SDS011;48558;48.242;11.654;2023-07-02T06:56:16;2.42;;;2.15;;
62509;SDS011;48558;48.242;11.654;2023-07-02T07:00:38;1.98;;;1.88;;
62509;SDS011;48558;48.242;11.654;2023-07-02T07:04:51;2.13;;;2.00;;
62509;SDS011;48558;48.242;11.654;2023-07-02T07:09:04;2.67;;;2.08;;
62509;SDS011;48558;48.242;11.654;2023-07-02T07:13:16;2.80;;;2.08;;
62509;SDS011;48558;48.242;11.654;2023-07-02T07:17:29;2.35;;;2.15;;
62509;SDS011;48558;48.242;11.654;2023-07-02T07:21:42;3.55;;;2.58;;
62509;SDS011;48558;48.242;11.654;2023-07-02T07:25:55;2.67;;;2.47;;
62509;SDS011;48558;48.242;11.654;2023-07-02T07:30:08;3.10;;;2.65;;
62509;SDS011;48558;48.242;11.654;2023-07-02T07:34:21;4.22;;;2.30;;
62509;SDS011;48558;48.242;11.654;2023-07-02T07:38:44;3.03;;;2.72;;
62509;SDS011;48558;48.242;11.654;2023-07-02T07:42:56;2.90;;;2.53;;
62509;SDS011;48558;48.242;11.654;2023-07-02T07:47:09;2.70;;;2.47;;
62509;SDS011;48558;48.242;11.654;2023-07-02T07:51:21;3.00;;;2.65;;
62509;SDS011;48558;48.242;11.654;2023-07-02T07:55:34;2.75;;;2.40;;
62509;SDS011;48558;48.242;11.654;2023-07-02T07:59:56;3.08;;;2.30;;
62509;SDS011;48558;48.242;11.654;2023-07-02T08:04:09;2.63;;;2.40;;
62509;SDS011;48558;48.242;11.654;2023-07-02T08:08:22;4.25;;;2.10;;
62509;SDS011;48558;48.242;11.654;2023-07-02T08:12:34;2.40;;;2.20;;
62509;SDS011;48558;48.242;11.654;2023-07-02T08:16:57;3.10;;;2.17;;
62509;SDS011;48558;48.242;11.654;2023-07-02T08:21:09;2.75;;;1.70;;
62509;SDS011;48558;48.242;11.654;2023-07-02T08:25:23;1.63;;;1.52;;
62509;SDS011;48558;48.242;11.654;2023-07-02T08:29:37;1.65;;;1.55;;
62509;SDS011;48558;48.242;11.654;2023-07-02T08:33:50;1.83;;;1.70;;
62509;SDS011;48558;48.242;11.654;2023-07-02T08:38:02;1.55;;;1.45;;
62509;SDS011;48558;48.242;11.654;2023-07-02T08:42:15;1.90;;;1.80;;
62509;SDS011;48558;48.242;11.654;2023-07-02T08:46:29;1.70;;;1.60;;
62509;SDS011;48558;48.242;11.654;2023-07-02T08:50:51;1.85;;;1.75;;
62509;SDS011;48558;48.242;11.654;2023-07-02T08:55:05;2.95;;;1.60;;
62509;SDS011;48558;48.242;11.654;2023-07-02T08:59:18;3.83;;;2.00;;
62509;SDS011;48558;48.242;11.654;2023-07-02T09:03:31;3.35;;;1.92;;
62509;SDS011;48558;48.242;11.654;2023-07-02T09:07:47;3.15;;;1.80;;
62509;SDS011;48558;48.242;11.654;2023-07-02T09:12:05;1.88;;;1.77;;
62509;SDS011;48558;48.242;11.654;2023-07-02T09:20:43;1.80;;;1.70;;
62509;SDS011;48558;48.242;11.654;2023-07-02T09:24:57;2.63;;;2.15;;
62509;SDS011;48558;48.242;11.654;2023-07-02T09:29:28;1.70;;;1.60;;
62509;SDS011;48558;48.242;11.654;2023-07-02T09:33:43;2.15;;;1.95;;
62509;SDS011;48558;48.242;11.654;2023-07-02T09:37:59;2.92;;;1.98;;
62509;SDS011;48558;48.242;11.654;2023-07-02T09:42:12;2.25;;;2.10;;
62509;SDS011;48558;48.242;11.654;2023-07-02T09:46:25;2.25;;;1.98;;
62509;SDS011;48558;48.242;11.654;2023-07-02T09:50:39;3.75;;;2.28;;
62509;SDS011;48558;48.242;11.654;2023-07-02T09:54:54;2.00;;;1.88;;
62509;SDS011;48558;48.242;11.654;2023-07-02T09:59:07;2.45;;;1.90;;
62509;SDS011;48558;48.242;11.654;2023-07-02T10:03:27;2.20;;;1.85;;
62509;SDS011;48558;48.242;11.654;2023-07-02T10:07:44;2.85;;;2.00;;
62509;SDS011;48558;48.242;11.654;2023-07-02T10:11:56;2.67;;;2.00;;
62509;SDS011;48558;48.242;11.654;2023-07-02T10:16:09;2.25;;;2.08;;
62509;SDS011;48558;48.242;11.654;2023-07-02T10:20:31;3.28;;;2.45;;
62509;SDS011;48558;48.242;11.654;2023-07-02T10:24:55;3.70;;;2.60;;
62509;SDS011;48558;48.242;11.654;2023-07-02T10:29:22;3.40;;;2.63;;
62509;SDS011;48558;48.242;11.654;2023-07-02T10:33:47;3.72;;;2.80;;
62509;SDS011;48558;48.242;11.654;2023-07-02T10:38:28;4.00;;;2.60;;
62509;SDS011;48558;48.242;11.654;2023-07-02T10:42:51;3.88;;;3.20;;
62509;SDS011;48558;48.242;11.654;2023-07-02T10:47:14;2.97;;;2.67;;
62509;SDS011;48558;48.242;11.654;2023-07-02T10:51:37;5.00;;;2.85;;
62509;SDS011;48558;48.242;11.654;2023-07-02T10:55:55;4.13;;;2.90;;
62509;SDS011;48558;48.242;11.654;2023-07-02T11:00:19;3.08;;;2.63;;
62509;SDS011;48558;48.242;11.654;2023-07-02T11:04:42;4.80;;;2.92;;
62509;SDS011;48558;48.242;11.654;2023-07-02T11:09:14;3.75;;;2.40;;
62509;SDS011;48558;48.242;11.654;2023-07-02T11:13:46;4.57;;;3.45;;
62509;SDS011;48558;48.242;11.654;2023-07-02T11:18:13;5.00;;;3.25;;
62509;SDS011;48558;48.242;11.654;2023-07-02T11:22:43;4.43;;;3.20;;
62509;SDS011;48558;48.242;11.654;2023-07-02T11:26:55;4.05;;;2.72;;
62509;SDS011;48558;48.242;11.654;2023-07-02T11:31:25;4.90;;;3.25;;
62509;SDS011;48558;48.242;11.654;2023-07-02T11:36:01;5.53;;;3.63;;
62509;SDS011;48558;48.242;11.654;2023-07-02T11:40:20;5.35;;;3.90;;
62509;SDS011;48558;48.242;11.654;2023-07-02T11:44:43;4.70;;;4.05;;
62509;SDS011;48558;48.242;11.654;2023-07-02T11:49:05;5.30;;;4.18;;
62509;SDS011;48558;48.242;11.654;2023-07-02T11:53:30;6.05;;;4.80;;
62509;SDS011;48558;48.242;11.654;2023-07-02T11:57:52;8.52;;;5.30;;
62509;SDS011;48558;48.242;11.654;2023-07-02T12:02:08;6.68;;;5.00;;
62509;SDS011;48558;48.242;11.654;2023-07-02T12:06:30;6.60;;;4.97;;
62509;SDS011;48558;48.242;11.654;2023-07-02T12:10:53;5.80;;;4.82;;
62509;SDS011;48558;48.242;11.654;2023-07-02T12:15:16;6.32;;;5.10;;
62509;SDS011;48558;48.242;11.654;2023-07-02T12:19:39;7.38;;;5.32;;
62509;SDS011;48558;48.242;11.654;2023-07-02T12:24:02;11.93;;;6.60;;
62509;SDS011;48558;48.242;11.654;2023-07-02T12:28:30;10.52;;;6.90;;
62509;SDS011;48558;48.242;11.654;2023-07-02T12:32:53;10.05;;;6.75;;
62509;SDS011;48558;48.242;11.654;2023-07-02T12:37:05;8.77;;;6.15;;
62509;SDS011;48558;48.242;11.654;2023-07-02T12:41:18;10.30;;;6.80;;
62509;SDS011;48558;48.242;11.654;2023-07-02T12:45:33;8.63;;;6.20;;
62509;SDS011;48558;48.242;11.654;2023-07-02T12:49:46;9.80;;;6.60;;
62509;SDS011;48558;48.242;11.654;2023-07-02T12:53:59;9.57;;;7.10;;
62509;SDS011;48558;48.242;11.654;2023-07-02T12:58:11;12.00;;;7.30;;
62509;SDS011;48558;48.242;11.654;2023-07-02T13:02:34;12.07;;;7.10;;
62509;SDS011;48558;48.242;11.654;2023-07-02T13:07:04;10.70;;;6.88;;
62509;SDS011;48558;48.242;11.654;2023-07-02T13:11:17;8.82;;;6.35;;
62509;SDS011;48558;48.242;11.654;2023-07-02T13:15:30;10.43;;;7.30;;
62509;SDS011;48558;48.242;11.654;2023-07-02T13:19:42;13.50;;;7.75;;
62509;SDS011;48558;48.242;11.654;2023-07-02T13:23:55;17.58;;;7.75;;
62509;SDS011;48558;48.242;11.654;2023-07-02T13:28:17;12.73;;;8.00;;
62509;SDS011;48558;48.242;11.654;2023-07-02T13:32:33;13.98;;;9.48;;
62509;SDS011;48558;48.242;11.654;2023-07-02T13:36:47;13.15;;;8.23;;
62509;SDS011;48558;48.242;11.654;2023-07-02T13:41:00;14.75;;;8.90;;
62509;SDS011;48558;48.242;11.654;2023-07-02T13:45:22;17.80;;;7.90;;
62509;SDS011;48558;48.242;11.654;2023-07-02T13:49:35;8.88;;;7.13;;
62509;SDS011;48558;48.242;11.654;2023-07-02T13:53:47;13.32;;;8.38;;
62509;SDS011;48558;48.242;11.654;2023-07-02T13:58:00;15.98;;;8.48;;
62509;SDS011;48558;48.242;11.654;2023-07-02T14:02:12;17.70;;;8.65;;
62509;SDS011;48558;48.242;11.654;2023-07-02T14:06:25;10.95;;;8.00;;
62509;SDS011;48558;48.242;11.654;2023-07-02T14:10:38;14.70;;;9.25;;
62509;SDS011;48558;48.242;11.654;2023-07-02T14:14:51;14.48;;;9.60;;
62509;SDS011;48558;48.242;11.654;2023-07-02T14:19:03;15.10;;;9.20;;
62509;SDS011;48558;48.242;11.654;2023-07-02T14:23:26;13.18;;;9.32;;
62509;SDS011;48558;48.242;11.654;2023-07-02T14:27:38;13.93;;;9.38;;
62509;SDS011;48558;48.242;11.654;2023-07-02T14:32:31;13.90;;;9.35;;
62509;SDS011;48558;48.242;11.654;2023-07-02T14:36:44;12.93;;;9.43;;
62509;SDS011;48558;48.242;11.654;2023-07-02T14:40:57;14.15;;;9.23;;
62509;SDS011;48558;48.242;11.654;2023-07-02T14:45:10;14.02;;;9.95;;
62509;SDS011;48558;48.242;11.654;2023-07-02T14:49:23;15.75;;;10.15;;
62509;SDS011;48558;48.242;11.654;2023-07-02T14:53:35;13.45;;;9.65;;
62509;SDS011;48558;48.242;11.654;2023-07-02T14:57:48;16.65;;;10.57;;
62509;SDS011;48558;48.242;11.654;2023-07-02T15:02:00;16.75;;;10.68;;
62509;SDS011;48558;48.242;11.654;2023-07-02T15:06:16;13.88;;;10.45;;
62509;SDS011;48558;48.242;11.654;2023-07-02T15:10:30;15.43;;;10.85;;
62509;SDS011;48558;48.242;11.654;2023-07-02T15:14:43;16.30;;;11.57;;
62509;SDS011;48558;48.242;11.654;2023-07-02T15:18:55;16.10;;;10.32;;
62509;SDS011;48558;48.242;11.654;2023-07-02T15:23:08;13.00;;;9.77;;
62509;SDS011;48558;48.242;11.654;2023-07-02T15:27:30;18.27;;;10.77;;
62509;SDS011;48558;48.242;11.654;2023-07-02T15:31:52;14.98;;;9.98;;
62509;SDS011;48558;48.242;11.654;2023-07-02T15:36:05;19.58;;;10.23;;
62509;SDS011;48558;48.242;11.654;2023-07-02T15:40:21;14.32;;;9.27;;
62509;SDS011;48558;48.242;11.654;2023-07-02T15:44:33;15.77;;;11.02;;
62509;SDS011;48558;48.242;11.654;2023-07-02T15:48:46;16.90;;;10.30;;
62509;SDS011;48558;48.242;11.654;2023-07-02T15:52:59;16.75;;;11.02;;
62509;SDS011;48558;48.242;11.654;2023-07-02T15:57:16;14.02;;;9.98;;
62509;SDS011;48558;48.242;11.654;2023-07-02T16:01:29;14.43;;;9.80;;
62509;SDS011;48558;48.242;11.654;2023-07-02T16:05:42;14.82;;;10.10;;
62509;SDS011;48558;48.242;11.654;2023-07-02T16:09:55;13.55;;;10.00;;
62509;SDS011;48558;48.242;11.654;2023-07-02T16:14:09;13.02;;;9.65;;
62509;SDS011;48558;48.242;11.654;2023-07-02T16:18:27;12.32;;;9.23;;
62509;SDS011;48558;48.242;11.654;2023-07-02T16:22:48;12.48;;;9.35;;
62509;SDS011;48558;48.242;11.654;2023-07-02T16:27:01;13.57;;;9.98;;
62509;SDS011;48558;48.242;11.654;2023-07-02T16:31:22;12.45;;;7.85;;
62509;SDS011;48558;48.242;11.654;2023-07-02T16:35:44;13.05;;;9.13;;
62509;SDS011;48558;48.242;11.654;2023-07-02T16:39:58;12.45;;;8.63;;
62509;SDS011;48558;48.242;11.654;2023-07-02T16:44:19;14.25;;;9.15;;
62509;SDS011;48558;48.242;11.654;2023-07-02T16:48:35;11.10;;;8.27;;
62509;SDS011;48558;48.242;11.654;2023-07-02T16:52:48;12.18;;;8.05;;
62509;SDS011;48558;48.242;11.654;2023-07-02T16:57:00;10.18;;;7.78;;
62509;SDS011;48558;48.242;11.654;2023-07-02T17:01:13;12.25;;;8.57;;
62509;SDS011;48558;48.242;11.654;2023-07-02T17:05:26;13.52;;;7.07;;
62509;SDS011;48558;48.242;11.654;2023-07-02T17:09:40;14.30;;;7.80;;
62509;SDS011;48558;48.242;11.654;2023-07-02T17:13:57;10.25;;;5.75;;
62509;SDS011;48558;48.242;11.654;2023-07-02T17:18:10;8.20;;;6.13;;
62509;SDS011;48558;48.242;11.654;2023-07-02T17:22:23;10.13;;;6.25;;
62509;SDS011;48558;48.242;11.654;2023-07-02T17:26:39;8.65;;;5.75;;
62509;SDS011;48558;48.242;11.654;2023-07-02T17:30:51;6.55;;;4.63;;
62509;SDS011;48558;48.242;11.654;2023-07-02T17:35:04;7.45;;;5.10;;
62509;SDS011;48558;48.242;11.654;2023-07-02T17:39:25;8.68;;;6.00;;
62509;SDS011;48558;48.242;11.654;2023-07-02T17:43:39;7.68;;;5.68;;
62509;SDS011;48558;48.242;11.654;2023-07-02T17:47:51;8.55;;;5.88;;
62509;SDS011;48558;48.242;11.654;2023-07-02T17:52:04;7.70;;;5.32;;
62509;SDS011;48558;48.242;11.654;2023-07-02T17:56:21;7.55;;;5.18;;
62509;SDS011;48558;48.242;11.654;2023-07-02T18:00:34;5.90;;;5.30;;
62509;SDS011;48558;48.242;11.654;2023-07-02T18:04:49;6.43;;;4.82;;
62509;SDS011;48558;48.242;11.654;2023-07-02T18:09:02;6.63;;;5.53;;
62509;SDS011;48558;48.242;11.654;2023-07-02T18:13:17;8.10;;;5.30;;
62509;SDS011;48558;48.242;11.654;2023-07-02T18:17:29;4.97;;;4.47;;
62509;SDS011;48558;48.242;11.654;2023-07-02T18:21:43;5.90;;;4.88;;
62509;SDS011;48558;48.242;11.654;2023-07-02T18:25:56;6.53;;;4.82;;
62509;SDS011;48558;48.242;11.654;2023-07-02T18:30:11;6.75;;;5.13;;
62509;SDS011;48558;48.242;11.654;2023-07-02T18:34:25;6.28;;;4.68;;
62509;SDS011;48558;48.242;11.654;2023-07-02T18:38:38;6.57;;;4.53;;
62509;SDS011;48558;48.242;11.654;2023-07-02T18:42:51;6.55;;;4.95;;
62509;SDS011;48558;48.242;11.654;2023-07-02T18:47:05;6.57;;;4.90;;
62509;SDS011;48558;48.242;11.654;2023-07-02T18:51:20;6.88;;;4.68;;
62509;SDS011;48558;48.242;11.654;2023-07-02T18:55:32;6.90;;;5.18;;
62509;SDS011;48558;48.242;11.654;2023-07-02T18:59:46;7.30;;;4.75;;
62509;SDS011;48558;48.242;11.654;2023-07-02T19:04:00;6.88;;;4.72;;
62509;SDS011;48558;48.242;11.654;2023-07-02T19:08:13;6.72;;;4.78;;
62509;SDS011;48558;48.242;11.654;2023-07-02T19:12:27;6.50;;;5.13;;
62509;SDS011;48558;48.242;11.654;2023-07-02T19:16:41;6.38;;;4.90;;
62509;SDS011;48558;48.242;11.654;2023-07-02T19:20:56;6.35;;;4.90;;
62509;SDS011;48558;48.242;11.654;2023-07-02T19:25:11;7.85;;;4.38;;
62509;SDS011;48558;48.242;11.654;2023-07-02T19:29:23;6.32;;;4.63;;
62509;SDS011;48558;48.242;11.654;2023-07-02T19:33:36;6.07;;;4.63;;
62509;SDS011;48558;48.242;11.654;2023-07-02T19:37:48;7.97;;;4.80;;
62509;SDS011;48558;48.242;11.654;2023-07-02T19:42:01;7.03;;;4.57;;
62509;SDS011;48558;48.242;11.654;2023-07-02T19:46:24;5.85;;;4.70;;
62509;SDS011;48558;48.242;11.654;2023-07-02T19:50:37;6.85;;;5.00;;
62509;SDS011;48558;48.242;11.654;2023-07-02T19:54:54;6.55;;;4.45;;
62509;SDS011;48558;48.242;11.654;2023-07-02T19:59:15;6.38;;;4.97;;
62509;SDS011;48558;48.242;11.654;2023-07-02T20:03:36;5.47;;;4.70;;
62509;SDS011;48558;48.242;11.654;2023-07-02T20:07:50;5.63;;;4.57;;
62509;SDS011;48558;48.242;11.654;2023-07-02T20:12:02;7.35;;;4.68;;
62509;SDS011;48558;48.242;11.654;2023-07-02T20:16:16;7.63;;;4.68;;
62509;SDS011;48558;48.242;11.654;2023-07-02T20:20:28;7.72;;;4.90;;
62509;SDS011;48558;48.242;11.654;2023-07-02T20:24:44;5.57;;;4.60;;
62509;SDS011;48558;48.242;11.654;2023-07-02T20:28:57;6.35;;;4.93;;
62509;SDS011;48558;48.242;11.654;2023-07-02T20:33:11;8.90;;;5.38;;
62509;SDS011;48558;48.242;11.654;2023-07-02T20:37:24;6.85;;;4.60;;
62509;SDS011;48558;48.242;11.654;2023-07-02T20:41:48;6.40;;;4.32;;
62509;SDS011;48558;48.242;11.654;2023-07-02T20:46:01;7.13;;;4.43;;
62509;SDS011;48558;48.242;11.654;2023-07-02T20:50:17;6.35;;;4.07;;
62509;SDS011;48558;48.242;11.654;2023-07-02T20:54:29;4.88;;;4.00;;
62509;SDS011;48558;48.242;11.654;2023-07-02T20:58:42;5.28;;;4.50;;
62509;SDS011;48558;48.242;11.654;2023-07-02T21:02:55;5.40;;;4.07;;
62509;SDS011;48558;48.242;11.654;2023-07-02T21:07:07;6.68;;;4.72;;
62509;SDS011;48558;48.242;11.654;2023-07-02T21:11:20;5.50;;;4.53;;
62509;SDS011;48558;48.242;11.654;2023-07-02T21:15:52;7.68;;;4.70;;
62509;SDS011;48558;48.242;11.654;2023-07-02T21:20:11;8.60;;;4.88;;
62509;SDS011;48558;48.242;11.654;2023-07-02T21:24:24;8.40;;;4.85;;
62509;SDS011;48558;48.242;11.654;2023-07-02T21:28:37;5.28;;;4.35;;
62509;SDS011;48558;48.242;11.654;2023-07-02T21:32:50;7.68;;;5.45;;
62509;SDS011;48558;48.242;11.654;2023-07-02T21:37:13;9.38;;;5.15;;
62509;SDS011;48558;48.242;11.654;2023-07-02T21:41:26;7.30;;;5.30;;
62509;SDS011;48558;48.242;11.654;2023-07-02T21:45:55;7.32;;;5.20;;
62509;SDS011;48558;48.242;11.654;2023-07-02T21:50:09;6.97;;;4.70;;
62509;SDS011;48558;48.242;11.654;2023-07-02T21:54:22;11.27;;;5.00;;
62509;SDS011;48558;48.242;11.654;2023-07-02T21:58:36;8.25;;;5.35;;
62509;SDS011;48558;48.242;11.654;2023-07-02T22:02:58;6.88;;;5.55;;
62509;SDS011;48558;48.242;11.654;2023-07-02T22:07:10;7.65;;;5.65;;
62509;SDS011;48558;48.242;11.654;2023-07-02T22:11:24;6.93;;;5.43;;
62509;SDS011;48558;48.242;11.654;2023-07-02T22:15:39;7.63;;;5.18;;
62509;SDS011;48558;48.242;11.654;2023-07-02T22:19:52;10.18;;;6.03;;
62509;SDS011;48558;48.242;11.654;2023-07-02T22:24:16;8.43;;;5.88;;
62509;SDS011;48558;48.242;11.654;2023-07-02T22:28:29;9.38;;;5.70;;
62509;SDS011;48558;48.242;11.654;2023-07-02T22:32:41;8.50;;;5.82;;
62509;SDS011;48558;48.242;11.654;2023-07-02T22:36:55;7.85;;;5.88;;
62509;SDS011;48558;48.242;11.654;2023-07-02T22:41:07;9.82;;;6.05;;
62509;SDS011;48558;48.242;11.654;2023-07-02T22:45:20;12.90;;;5.55;;
62509;SDS011;48558;48.242;11.654;2023-07-02T22:49:33;8.45;;;5.43;;
62509;SDS011;48558;48.242;11.654;2023-07-02T22:53:56;7.50;;;5.93;;
62509;SDS011;48558;48.242;11.654;2023-07-02T22:58:08;9.05;;;5.95;;
62509;SDS011;48558;48.242;11.654;2023-07-02T23:02:21;9.63;;;6.13;;
62509;SDS011;48558;48.242;11.654;2023-07-02T23:06:33;11.63;;;6.20;;
62509;SDS011;48558;48.242;11.654;2023-07-02T23:10:46;8.70;;;6.40;;
62509;SDS011;48558;48.242;11.654;2023-07-02T23:14:59;8.98;;;6.40;;
62509;SDS011;48558;48.242;11.654;2023-07-02T23:19:11;9.00;;;7.30;;
62509;SDS011;48558;48.242;11.654;2023-07-02T23:23:24;10.25;;;6.05;;
62509;SDS011;48558;48.242;11.654;2023-07-02T23:27:37;7.85;;;6.13;;
62509;SDS011;48558;48.242;11.654;2023-07-02T23:31:51;9.82;;;6.70;;
62509;SDS011;48558;48.242;11.654;2023-07-02T23:36:04;12.35;;;6.15;;
62509;SDS011;48558;48.242;11.654;2023-07-02T23:40:17;13.52;;;6.90;;
62509;SDS011;48558;48.242;11.654;2023-07-02T23:44:39;10.93;;;6.75;;
62509;SDS011;48558;48.242;11.654;2023-07-02T23:49:02;10.45;;;7.18;;
62509;SDS011;48558;48.242;11.654;2023-07-02T23:53:15;10.20;;;6.55;;
62509;SDS011;48558;48.242;11.654;2023-07-02T23:57:28;9.90;;;7.20;;
